createdAt,value
2022-12-22T00:02:35.709Z,100.00
2022-12-22T00:05:26.344Z,100.00
2022-12-22T00:08:11.491Z,100.00
2022-12-22T00:10:56.857Z,100.00
2022-12-22T00:13:43.322Z,100.00
2022-12-22T00:16:29.329Z,100.00
2022-12-22T00:19:14.483Z,100.00
2022-12-22T00:21:59.703Z,100.00
2022-12-22T00:24:45.174Z,100.00
2022-12-22T00:27:33.640Z,100.00
2022-12-22T00:30:20.663Z,100.00
2022-12-22T00:33:06.963Z,100.00
2022-12-22T00:35:52.132Z,100.00
2022-12-22T00:38:39.461Z,100.00
2022-12-22T00:41:24.860Z,100.00
2022-12-22T00:44:10.199Z,100.00
2022-12-22T00:46:58.552Z,100.00
2022-12-22T00:49:45.605Z,100.00
2022-12-22T00:52:31.050Z,100.00
2022-12-22T00:55:16.363Z,100.00
2022-12-22T00:58:02.245Z,100.00
2022-12-22T01:00:47.526Z,100.00
2022-12-22T01:03:34.456Z,100.00
2022-12-22T01:06:21.541Z,100.00
2022-12-22T01:09:07.247Z,100.00
2022-12-22T01:11:53.495Z,100.00
2022-12-22T01:14:38.720Z,100.00
2022-12-22T01:17:24.181Z,100.00
2022-12-22T01:20:10.742Z,100.00
2022-12-22T01:22:56.126Z,100.00
2022-12-22T01:25:41.444Z,100.00
2022-12-22T01:28:32.860Z,100.00
2022-12-22T01:31:34.284Z,100.00
2022-12-22T01:34:19.686Z,100.00
2022-12-22T01:37:06.512Z,100.00
2022-12-22T01:39:51.572Z,100.00
2022-12-22T01:42:36.866Z,100.00
2022-12-22T01:45:38.271Z,100.00
2022-12-22T01:48:23.745Z,100.00
2022-12-22T01:51:09.120Z,100.00
2022-12-22T01:53:55.709Z,100.00
2022-12-22T01:56:42.085Z,100.00
2022-12-22T01:59:27.310Z,100.00
2022-12-22T02:02:12.755Z,100.00
2022-12-22T02:05:02.226Z,100.00
2022-12-22T02:08:05.347Z,100.00
2022-12-22T02:11:10.496Z,100.00
2022-12-22T02:14:04.315Z,100.00
2022-12-22T02:16:54.511Z,100.00
2022-12-22T02:19:53.566Z,100.00
2022-12-22T02:22:49.276Z,100.00
2022-12-22T02:25:41.084Z,100.00
2022-12-22T02:28:31.232Z,100.00
2022-12-22T02:31:16.649Z,100.00
2022-12-22T02:34:01.796Z,100.00
2022-12-22T02:37:05.201Z,100.00
2022-12-22T02:39:58.952Z,100.00
2022-12-22T02:42:52.855Z,100.00
2022-12-22T02:45:48.741Z,100.00
2022-12-22T02:48:39.553Z,100.00
2022-12-22T02:51:27.189Z,100.00
2022-12-22T02:54:13.808Z,100.00
2022-12-22T02:57:00.169Z,100.00
2022-12-22T02:59:45.394Z,100.00
2022-12-22T03:02:32.760Z,100.00
2022-12-22T03:05:18.259Z,100.00
2022-12-22T03:08:08.240Z,100.00
2022-12-22T03:10:53.826Z,100.00
2022-12-22T03:13:39.147Z,100.00
2022-12-22T03:16:24.571Z,100.00
2022-12-22T03:19:11.054Z,100.00
2022-12-22T03:21:56.524Z,100.00
2022-12-22T03:24:41.747Z,100.00
2022-12-22T03:27:09.319Z,100.00
2022-12-22T03:29:36.848Z,100.00
2022-12-22T03:32:04.637Z,100.00
2022-12-22T03:34:33.469Z,100.00
2022-12-22T03:37:00.983Z,100.00
2022-12-22T03:39:28.507Z,100.00
2022-12-22T03:42:25.265Z,100.00
2022-12-22T03:45:10.055Z,100.00
2022-12-22T03:47:37.567Z,100.00
2022-12-22T03:50:07.682Z,100.00
2022-12-22T03:52:35.334Z,100.00
2022-12-22T03:55:02.891Z,100.00
2022-12-22T03:57:30.428Z,100.00
2022-12-22T03:59:57.981Z,100.00
2022-12-22T04:02:25.599Z,100.00
2022-12-22T04:04:53.165Z,100.00
2022-12-22T04:07:22.054Z,100.00
2022-12-22T04:10:03.545Z,100.00
2022-12-22T04:12:48.744Z,100.00
2022-12-22T04:15:16.535Z,100.00
2022-12-22T04:17:44.083Z,100.00
2022-12-22T04:20:12.203Z,100.00
2022-12-22T04:22:41.082Z,100.00
2022-12-22T04:25:09.584Z,100.00
2022-12-22T04:27:37.152Z,100.00
2022-12-22T04:30:05.267Z,100.00
2022-12-22T04:32:32.868Z,100.00
2022-12-22T04:35:00.527Z,100.00
2022-12-22T04:37:28.206Z,100.00
2022-12-22T04:39:57.064Z,100.00
2022-12-22T04:42:24.699Z,100.00
2022-12-22T04:44:53.269Z,100.00
2022-12-22T04:47:20.792Z,100.00
2022-12-22T04:49:48.291Z,100.00
2022-12-22T04:52:15.860Z,100.00
2022-12-22T04:54:43.390Z,100.00
2022-12-22T04:57:12.427Z,100.00
2022-12-22T04:59:40.009Z,100.00
2022-12-22T05:02:07.659Z,100.00
2022-12-22T05:04:35.226Z,100.00
2022-12-22T05:07:02.797Z,100.00
2022-12-22T05:09:30.295Z,100.00
2022-12-22T05:11:57.827Z,100.00
2022-12-22T05:14:26.726Z,100.00
2022-12-22T05:16:54.315Z,100.00
2022-12-22T05:19:24.966Z,100.00
2022-12-22T05:21:56.683Z,100.00
2022-12-22T05:24:24.171Z,100.00
2022-12-22T05:26:51.751Z,100.00
2022-12-22T05:29:19.238Z,100.00
2022-12-22T05:31:48.140Z,100.00
2022-12-22T05:34:15.683Z,100.00
2022-12-22T05:36:43.204Z,100.00
2022-12-22T05:39:10.798Z,100.00
2022-12-22T05:41:38.382Z,100.00
2022-12-22T05:44:06.309Z,100.00
2022-12-22T05:46:33.910Z,100.00
2022-12-22T05:49:02.987Z,100.00
2022-12-22T05:51:30.605Z,100.00
2022-12-22T05:53:58.177Z,100.00
2022-12-22T05:56:25.742Z,100.00
2022-12-22T05:58:53.299Z,100.00
2022-12-22T06:01:21.052Z,100.00
2022-12-22T06:03:48.710Z,100.00
2022-12-22T06:06:17.838Z,100.00
2022-12-22T06:08:45.361Z,100.00
2022-12-22T06:11:12.940Z,100.00
2022-12-22T06:13:40.480Z,100.00
2022-12-22T06:16:08.588Z,100.00
2022-12-22T06:18:36.198Z,100.00
2022-12-22T06:21:04.286Z,100.00
2022-12-22T06:23:33.213Z,100.00
2022-12-22T06:26:02.467Z,100.00
2022-12-22T06:28:30.630Z,100.00
2022-12-22T06:30:58.335Z,100.00
2022-12-22T06:33:26.120Z,100.00
2022-12-22T06:35:58.649Z,100.00
2022-12-22T06:38:27.722Z,100.00
2022-12-22T06:40:56.667Z,100.00
2022-12-22T06:43:23.248Z,100.00
2022-12-22T06:45:50.851Z,100.00
2022-12-22T06:48:18.345Z,100.00
2022-12-22T06:50:45.927Z,100.00
2022-12-22T06:53:13.934Z,100.00
2022-12-22T06:55:41.430Z,100.00
2022-12-22T06:58:10.310Z,100.00
2022-12-22T07:00:37.901Z,100.00
2022-12-22T07:03:05.546Z,100.00
2022-12-22T07:05:33.932Z,100.00
2022-12-22T07:08:08.008Z,100.00
2022-12-22T07:10:53.930Z,100.00
2022-12-22T07:13:23.999Z,100.00
2022-12-22T07:15:59.558Z,100.00
2022-12-22T07:18:29.235Z,100.00
2022-12-22T07:20:56.838Z,100.00
2022-12-22T07:23:24.537Z,100.00
2022-12-22T07:25:52.595Z,100.00
2022-12-22T07:28:21.250Z,100.00
2022-12-22T07:30:50.546Z,100.00
2022-12-22T07:33:18.254Z,100.00
2022-12-22T07:35:46.666Z,100.00
2022-12-22T07:38:14.421Z,100.00
2022-12-22T07:40:43.115Z,100.00
2022-12-22T07:43:10.896Z,100.00
2022-12-22T07:45:39.230Z,100.00
2022-12-22T07:48:28.368Z,100.00
2022-12-22T07:51:01.245Z,100.00
2022-12-22T07:53:28.756Z,100.00
2022-12-22T07:55:56.267Z,100.00
2022-12-22T07:58:23.789Z,100.00
2022-12-22T08:00:51.306Z,100.00
2022-12-22T08:03:20.352Z,100.00
2022-12-22T08:05:48.026Z,100.00
2022-12-22T08:08:15.568Z,100.00
2022-12-22T08:10:43.074Z,100.00
2022-12-22T08:13:10.615Z,100.00
2022-12-22T08:15:38.200Z,100.00
2022-12-22T08:18:05.907Z,100.00
2022-12-22T08:20:34.763Z,100.00
2022-12-22T08:23:02.335Z,100.00
2022-12-22T08:25:31.625Z,100.00
2022-12-22T08:27:59.761Z,100.00
2022-12-22T08:30:27.545Z,100.00
2022-12-22T08:32:55.176Z,100.00
2022-12-22T08:35:22.925Z,100.00
2022-12-22T08:37:52.986Z,100.00
2022-12-22T08:40:23.896Z,100.00
2022-12-22T08:42:54.582Z,100.00
2022-12-22T08:45:22.287Z,100.00
2022-12-22T08:47:49.829Z,100.00
2022-12-22T08:50:17.783Z,100.00
2022-12-22T08:52:45.329Z,100.00
2022-12-22T08:55:14.272Z,100.00
2022-12-22T08:57:41.874Z,100.00
2022-12-22T09:00:13.010Z,100.00
2022-12-22T09:02:40.869Z,100.00
2022-12-22T09:05:09.325Z,100.00
2022-12-22T09:07:37.018Z,100.00
2022-12-22T09:10:04.891Z,100.00
2022-12-22T09:12:33.773Z,100.00
2022-12-22T09:15:01.303Z,100.00
2022-12-22T09:17:29.058Z,100.00
2022-12-22T09:19:56.562Z,100.00
2022-12-22T09:22:28.044Z,100.00
2022-12-22T09:24:56.517Z,100.00
2022-12-22T09:27:24.085Z,100.00
2022-12-22T09:29:52.977Z,100.00
2022-12-22T09:32:20.607Z,100.00
2022-12-22T09:34:48.749Z,100.00
2022-12-22T09:37:16.965Z,100.00
2022-12-22T09:39:44.595Z,100.00
2022-12-22T09:42:16.257Z,100.00
2022-12-22T09:44:47.436Z,100.00
2022-12-22T09:47:22.288Z,100.00
2022-12-22T09:49:50.508Z,100.00
2022-12-22T09:52:25.534Z,100.00
2022-12-22T09:54:53.290Z,100.00
2022-12-22T09:57:21.139Z,100.00
2022-12-22T09:59:48.957Z,100.00
2022-12-22T10:02:28.004Z,100.00
2022-12-22T10:05:11.371Z,100.00
2022-12-22T10:07:42.304Z,100.00
2022-12-22T10:10:20.847Z,100.00
2022-12-22T10:12:50.809Z,100.00
2022-12-22T10:15:21.864Z,100.00
2022-12-22T10:17:53.538Z,100.00
2022-12-22T10:20:25.249Z,100.00
2022-12-22T10:22:55.051Z,100.00
2022-12-22T10:25:45.152Z,100.00
2022-12-22T10:28:23.267Z,100.00
2022-12-22T10:30:50.933Z,100.00
2022-12-22T10:33:20.052Z,100.00
2022-12-22T10:35:50.862Z,100.00
2022-12-22T10:38:27.743Z,100.00
2022-12-22T10:41:02.203Z,100.00
2022-12-22T10:43:33.722Z,100.00
2022-12-22T10:46:03.359Z,100.00
2022-12-22T10:48:34.952Z,100.00
2022-12-22T10:51:05.051Z,100.00
2022-12-22T10:53:46.710Z,100.00
2022-12-22T10:56:26.792Z,100.00
2022-12-22T10:58:56.112Z,100.00
2022-12-22T11:01:26.337Z,100.00
2022-12-22T11:03:55.422Z,100.00
2022-12-22T11:06:23.427Z,100.00
2022-12-22T11:08:51.975Z,100.00
2022-12-22T11:11:35.424Z,100.00
2022-12-22T11:14:13.670Z,100.00
2022-12-22T11:16:46.801Z,100.00
2022-12-22T11:19:40.002Z,100.00
2022-12-22T11:22:15.692Z,100.00
2022-12-22T11:24:59.670Z,100.00
2022-12-22T11:27:46.182Z,100.00
2022-12-22T11:30:19.239Z,100.00
2022-12-22T11:33:02.781Z,100.00
2022-12-22T11:35:42.436Z,100.00
2022-12-22T11:38:18.186Z,100.00
2022-12-22T11:40:49.668Z,100.00
2022-12-22T11:43:25.514Z,100.00
2022-12-22T11:46:16.749Z,100.00
2022-12-22T11:49:06.564Z,100.00
2022-12-22T11:51:56.168Z,100.00
2022-12-22T11:54:41.326Z,100.00
2022-12-22T11:57:19.373Z,100.00
2022-12-22T11:59:59.960Z,100.00
2022-12-22T12:02:56.618Z,99.55
2022-12-22T12:05:44.146Z,98.47
2022-12-22T12:08:25.218Z,98.28
2022-12-22T12:10:58.127Z,97.33
2022-12-22T12:13:37.431Z,97.73
2022-12-22T12:16:14.902Z,98.22
2022-12-22T12:19:01.487Z,97.38
2022-12-22T12:21:30.286Z,97.33
2022-12-22T12:24:33.910Z,97.78
2022-12-22T12:27:12.120Z,98.01
2022-12-22T12:29:44.608Z,97.08
2022-12-22T12:32:18.836Z,96.45
2022-12-22T12:34:49.847Z,95.95
2022-12-22T12:37:26.337Z,95.78
2022-12-22T12:40:21.120Z,95.44
2022-12-22T12:42:49.692Z,94.85
2022-12-22T12:45:38.114Z,94.75
2022-12-22T12:48:40.151Z,95.20
2022-12-22T12:51:46.373Z,95.06
2022-12-22T12:54:42.673Z,95.61
2022-12-22T12:57:45.849Z,96.05
2022-12-22T13:00:48.806Z,95.77
2022-12-22T13:04:02.605Z,93.34
2022-12-22T13:06:51.490Z,95.48
2022-12-22T13:12:39.851Z,91.12
2022-12-22T13:15:32.462Z,91.06
2022-12-22T13:18:01.861Z,90.81
2022-12-22T13:20:33.390Z,89.70
2022-12-22T13:23:04.788Z,89.39
2022-12-22T13:25:42.891Z,90.46
2022-12-22T13:28:16.222Z,90.51
2022-12-22T13:30:48.691Z,90.75
2022-12-22T13:33:19.364Z,92.02
2022-12-22T13:35:52.140Z,92.52
2022-12-22T13:38:29.078Z,92.09
2022-12-22T13:40:57.614Z,92.02
2022-12-22T13:43:28.444Z,92.11
2022-12-22T13:45:58.452Z,92.45
2022-12-22T13:48:30.993Z,92.36
2022-12-22T13:51:03.290Z,92.49
2022-12-22T13:56:25.841Z,92.95
2022-12-22T13:59:00.022Z,92.63
2022-12-22T14:01:27.728Z,92.41
2022-12-22T14:04:02.514Z,92.46
2022-12-22T14:06:32.836Z,92.69
2022-12-22T14:09:15.175Z,93.22
2022-12-22T14:11:51.178Z,93.82
2022-12-22T14:14:25.599Z,93.69
2022-12-22T14:16:57.072Z,94.26
2022-12-22T14:19:26.253Z,94.61
2022-12-22T14:22:03.303Z,95.03
2022-12-22T14:24:38.262Z,94.87
2022-12-22T14:27:07.696Z,95.23
2022-12-22T14:29:36.670Z,95.24
2022-12-22T14:32:04.828Z,96.02
2022-12-22T14:34:34.263Z,96.36
2022-12-22T14:37:02.945Z,96.59
2022-12-22T14:39:32.538Z,96.76
2022-12-22T14:42:02.567Z,97.04
2022-12-22T14:44:33.223Z,97.05
2022-12-22T14:47:15.946Z,97.31
2022-12-22T14:49:50.224Z,97.78
2022-12-22T14:52:23.074Z,97.72
2022-12-22T14:54:53.075Z,97.75
2022-12-22T14:57:29.791Z,97.53
2022-12-22T15:00:04.124Z,97.66
2022-12-22T15:02:39.621Z,97.53
2022-12-22T15:05:16.957Z,97.64
2022-12-22T15:10:43.744Z,98.09
2022-12-22T15:13:19.504Z,98.20
2022-12-22T15:15:47.050Z,97.96
2022-12-22T15:18:16.578Z,97.91
2022-12-22T15:20:44.269Z,97.75
2022-12-22T15:23:16.571Z,98.58
2022-12-22T15:25:44.264Z,98.38
2022-12-22T15:28:11.937Z,98.51
2022-12-22T15:30:39.701Z,98.56
2022-12-22T15:33:13.237Z,98.00
2022-12-22T15:35:42.686Z,98.62
2022-12-22T15:38:14.011Z,98.09
2022-12-22T15:40:42.133Z,98.64
2022-12-22T15:43:28.882Z,98.57
2022-12-22T15:45:57.988Z,98.17
2022-12-22T15:48:29.836Z,98.85
2022-12-22T15:50:59.973Z,98.82
2022-12-22T15:53:27.723Z,98.98
2022-12-22T15:55:58.320Z,99.07
2022-12-22T15:58:28.926Z,99.18
2022-12-22T16:00:56.786Z,99.19
2022-12-22T16:03:24.512Z,98.88
2022-12-22T16:05:52.812Z,99.27
2022-12-22T16:08:29.829Z,99.03
2022-12-22T16:10:57.670Z,99.05
2022-12-22T16:13:28.991Z,99.02
2022-12-22T16:15:58.119Z,98.75
2022-12-22T16:18:25.915Z,98.20
2022-12-22T16:20:53.561Z,97.79
2022-12-22T16:23:25.216Z,97.86
2022-12-22T16:26:00.671Z,97.54
2022-12-22T16:28:29.324Z,97.60
2022-12-22T16:30:57.161Z,98.11
2022-12-22T16:33:24.746Z,98.12
2022-12-22T16:35:52.292Z,97.90
2022-12-22T16:38:19.984Z,98.20
2022-12-22T16:40:51.421Z,98.64
2022-12-22T16:46:14.820Z,97.98
2022-12-22T16:48:45.092Z,97.85
2022-12-22T16:51:18.192Z,98.21
2022-12-22T16:53:45.870Z,98.15
2022-12-22T16:56:20.088Z,97.81
2022-12-22T16:58:48.618Z,97.84
2022-12-22T17:01:26.052Z,97.22
2022-12-22T17:03:54.068Z,97.32
2022-12-22T17:06:21.868Z,97.54
2022-12-22T17:08:49.910Z,97.41
2022-12-22T17:11:23.482Z,97.33
2022-12-22T17:13:54.285Z,97.25
2022-12-22T17:16:23.689Z,97.00
2022-12-22T17:18:51.398Z,97.06
2022-12-22T17:21:20.340Z,97.12
2022-12-22T17:23:50.693Z,97.76
2022-12-22T17:26:21.830Z,98.14
2022-12-22T17:28:50.657Z,98.01
2022-12-22T17:31:20.936Z,97.40
2022-12-22T17:33:49.160Z,97.60
2022-12-22T17:36:21.176Z,97.08
2022-12-22T17:38:48.941Z,97.59
2022-12-22T17:41:19.238Z,97.80
2022-12-22T17:43:47.212Z,97.46
2022-12-22T17:46:16.777Z,97.72
2022-12-22T17:48:44.911Z,97.91
2022-12-22T17:51:21.657Z,97.41
2022-12-22T17:53:49.392Z,97.69
2022-12-22T17:56:23.963Z,97.93
2022-12-22T17:58:52.185Z,97.80
2022-12-22T18:01:25.028Z,97.78
2022-12-22T18:03:53.313Z,97.86
2022-12-22T18:06:22.884Z,97.64
2022-12-22T18:08:51.906Z,97.81
2022-12-22T18:11:21.125Z,98.41
2022-12-22T18:13:49.472Z,97.45
2022-12-22T18:16:20.312Z,97.47
2022-12-22T18:18:48.399Z,98.05
2022-12-22T18:21:18.553Z,98.00
2022-12-22T18:23:50.326Z,98.50
2022-12-22T18:26:23.710Z,98.36
2022-12-22T18:28:52.049Z,98.20
2022-12-22T18:31:20.473Z,98.25
2022-12-22T18:33:48.693Z,98.46
2022-12-22T18:36:19.308Z,98.82
2022-12-22T18:38:48.197Z,99.31
2022-12-22T18:41:21.983Z,99.13
2022-12-22T18:43:50.077Z,98.68
2022-12-22T18:46:17.677Z,98.69
2022-12-22T18:48:47.399Z,98.59
2022-12-22T18:51:20.025Z,98.43
2022-12-22T18:53:48.291Z,98.91
2022-12-22T18:56:16.187Z,99.36
2022-12-22T18:58:45.931Z,99.02
2022-12-22T19:01:19.691Z,98.98
2022-12-22T19:03:47.936Z,99.55
2022-12-22T19:06:18.701Z,99.75
2022-12-22T19:08:48.085Z,99.39
2022-12-22T19:11:17.551Z,99.59
2022-12-22T19:13:49.351Z,99.64
2022-12-22T19:16:20.579Z,100.00
2022-12-22T19:18:48.229Z,100.00
2022-12-22T19:21:16.493Z,100.00
2022-12-22T19:23:45.423Z,100.00
2022-12-22T19:26:21.683Z,100.00
2022-12-22T19:28:53.047Z,100.00
2022-12-22T19:31:23.999Z,100.00
2022-12-22T19:33:53.099Z,100.00
2022-12-22T19:36:25.393Z,100.00
2022-12-22T19:39:00.512Z,100.00
2022-12-22T19:41:37.740Z,100.00
2022-12-22T19:44:07.611Z,100.00
2022-12-22T19:46:36.613Z,100.00
2022-12-22T19:49:04.316Z,100.00
2022-12-22T19:51:32.416Z,100.00
2022-12-22T19:53:59.961Z,100.00
2022-12-22T19:56:29.632Z,100.00
2022-12-22T19:58:59.317Z,100.00
2022-12-22T20:01:28.314Z,100.00
2022-12-22T20:03:56.828Z,100.00
2022-12-22T20:06:24.555Z,100.00
2022-12-22T20:08:52.171Z,100.00
2022-12-22T20:11:21.086Z,100.00
2022-12-22T20:13:49.056Z,100.00
2022-12-22T20:16:18.102Z,100.00
2022-12-22T20:18:47.184Z,100.00
2022-12-22T20:21:18.791Z,100.00
2022-12-22T20:23:48.046Z,100.00
2022-12-22T20:26:18.828Z,100.00
2022-12-22T20:28:46.390Z,99.68
2022-12-22T20:31:17.437Z,100.00
2022-12-22T20:33:45.076Z,100.00
2022-12-22T20:36:20.987Z,100.00
2022-12-22T20:38:50.117Z,99.51
2022-12-22T20:41:17.776Z,99.75
2022-12-22T20:43:45.744Z,99.30
2022-12-22T20:46:16.648Z,99.50
2022-12-22T20:48:47.382Z,99.12
2022-12-22T20:51:19.297Z,99.93
2022-12-22T20:53:48.120Z,99.51
2022-12-22T20:56:22.588Z,100.00
2022-12-22T20:58:50.977Z,99.98
2022-12-22T21:01:19.055Z,100.00
2022-12-22T21:03:46.735Z,100.00
2022-12-22T21:06:27.738Z,100.00
2022-12-22T21:08:57.578Z,100.00
2022-12-22T21:11:26.132Z,100.00
2022-12-22T21:13:54.071Z,99.91
2022-12-22T21:16:23.841Z,100.00
2022-12-22T21:18:51.919Z,100.00
2022-12-22T21:21:20.388Z,100.00
2022-12-22T21:23:49.277Z,100.00
2022-12-22T21:26:22.429Z,100.00
2022-12-22T21:28:50.412Z,100.00
2022-12-22T21:31:18.047Z,99.77
2022-12-22T21:33:47.038Z,100.00
2022-12-22T21:36:20.460Z,100.00
2022-12-22T21:38:50.423Z,100.00
2022-12-22T21:41:17.972Z,100.00
2022-12-22T21:43:45.852Z,100.00
2022-12-22T21:46:13.830Z,100.00
2022-12-22T21:48:41.423Z,100.00
2022-12-22T21:51:12.953Z,100.00
2022-12-22T21:53:40.533Z,99.78
2022-12-22T21:56:18.586Z,100.00
2022-12-22T21:58:46.396Z,100.00
2022-12-22T22:01:15.602Z,100.00
2022-12-22T22:03:43.452Z,100.00
2022-12-22T22:06:11.084Z,100.00
2022-12-22T22:08:38.657Z,100.00
2022-12-22T22:11:17.858Z,100.00
2022-12-22T22:13:45.401Z,100.00
2022-12-22T22:16:12.957Z,100.00
2022-12-22T22:18:40.945Z,100.00
2022-12-22T22:21:09.281Z,100.00
2022-12-22T22:23:36.995Z,100.00
2022-12-22T22:26:05.251Z,100.00
2022-12-22T22:28:35.031Z,99.95
2022-12-22T22:31:08.908Z,100.00
2022-12-22T22:33:36.640Z,100.00
2022-12-22T22:36:06.314Z,100.00
2022-12-22T22:38:33.849Z,100.00
2022-12-22T22:41:01.576Z,100.00
2022-12-22T22:43:29.169Z,100.00
2022-12-22T22:45:58.128Z,100.00
2022-12-22T22:48:25.781Z,100.00
2022-12-22T22:50:53.380Z,100.00
2022-12-22T22:53:20.885Z,100.00
2022-12-22T22:55:48.404Z,100.00
2022-12-22T22:58:16.026Z,100.00
2022-12-22T23:00:43.629Z,100.00
2022-12-22T23:03:12.699Z,100.00
2022-12-22T23:05:40.298Z,99.81
2022-12-22T23:08:07.838Z,100.00
2022-12-22T23:10:41.331Z,100.00
2022-12-22T23:13:09.399Z,100.00
2022-12-22T23:15:36.955Z,100.00
2022-12-22T23:18:04.801Z,99.83
2022-12-22T23:20:33.634Z,100.00
2022-12-22T23:23:01.175Z,100.00
2022-12-22T23:25:28.715Z,100.00
2022-12-22T23:27:56.306Z,100.00
2022-12-22T23:30:23.840Z,100.00
2022-12-22T23:32:51.414Z,100.00
2022-12-22T23:35:19.002Z,100.00
2022-12-22T23:37:47.887Z,100.00
2022-12-22T23:40:50.478Z,100.00
2022-12-22T23:43:03.447Z,100.00
2022-12-22T23:45:31.732Z,100.00
2022-12-22T23:47:59.818Z,100.00
2022-12-22T23:50:28.157Z,100.00
2022-12-22T23:52:57.130Z,100.00
2022-12-22T23:55:24.749Z,100.00
2022-12-22T23:57:52.969Z,100.00
